Skip Navigation LinksHome page > Weather > Current weather Skip Navigation Links

Current Weather

Ben-Gurion Intl Apt, Tel Aviv, Israel

For information only: do not use for flight planning or navigation.
Latest weather
Observation time Monday, November 29, 2021 10:50 PM IST
Local time Monday, November 29, 2021 11:21 PM IST
Flight conditions Visual Meteorological Conditions
Winds
Wind direction variable
Wind speed 3 mph
Visibility 6.2 mi.
Sky condition
Ceiling unlimited
Sky clear
Temperature 64°F
Dewpoint 52°F
Altimeter 30.00 in.Hg
Derived measurements
Relative humidity 64%
Density altitude 606 ft.
Remarks
Ceiling and visibility OK.
METAR LLBG 292050Z VRB03KT CAVOK 18/11 Q1016 BECMG 14007KT

Settings

Location code

InnerDrive.Weather 4.0.6770.0 Release CLR 4.0.30319.42000
Copyright ©2018 Inner Drive Technology. All rights reserved. Portions Copyright ©1986-2018 David Braverman.

Find weather

Site navigation


Skip Navigation Links

Place info

Page info

PayPal - The safer, easier way to pay online!

Return home.

Copyright ©2021 Inner Drive Technology. Purveyors of fine, hand-crafted computer software. Page printed 2021-11-29T21:21:20 UTC.